Time;durP1;ratioP1;P1;durP2;ratioP2;P2;SDS_P1;SDS_P2;PMS_P1;PMS_P2;Temp;Humidity;BMP_temperature;BMP_pressure;BME280_temperature;BME280_humidity;BME280_pressure;Samples;Min_cycle;Max_cycle;Signal;HPM_P1;HPM_P2
2021/03/07 00:00:32;;;;;;;13.35;3.88;;;3.20;99.90;;;;;;5077669;28;20121;-76
2021/03/07 00:02:57;;;;;;;27.70;3.92;;;3.20;99.90;;;;;;5077611;28;20535;-76
2021/03/07 00:05:23;;;;;;;19.05;3.38;;;3.30;99.90;;;;;;5059014;28;20030;-76
2021/03/07 00:07:49;;;;;;;12.77;3.78;;;3.20;99.90;;;;;;5059657;28;20055;-77
2021/03/07 00:10:17;;;;;;;20.00;3.17;;;3.30;99.90;;;;;;5077683;28;20097;-77
2021/03/07 00:12:45;;;;;;;21.35;3.55;;;3.30;99.90;;;;;;5077645;28;20021;-76
2021/03/07 00:15:12;;;;;;;22.70;4.03;;;3.30;99.90;;;;;;5076956;28;20019;-76
2021/03/07 00:17:39;;;;;;;11.52;3.53;;;3.30;99.90;;;;;;5077367;28;20040;-76
2021/03/07 00:20:06;;;;;;;15.73;3.30;;;3.30;99.90;;;;;;5059726;28;20421;-76
2021/03/07 00:22:32;;;;;;;20.67;3.30;;;3.30;99.90;;;;;;5077599;28;20496;-76
2021/03/07 00:24:57;;;;;;;19.98;4.13;;;3.30;99.90;;;;;;5076882;28;20033;-76
2021/03/07 00:27:23;;;;;;;18.17;3.75;;;3.30;99.90;;;;;;5077413;28;20048;-75
2021/03/07 00:29:49;;;;;;;11.93;3.22;;;3.30;99.90;;;;;;5059381;28;20028;-76
2021/03/07 00:32:14;;;;;;;15.88;3.88;;;3.30;99.90;;;;;;5059716;28;20021;-76
2021/03/07 00:34:40;;;;;;;19.50;3.50;;;3.30;99.90;;;;;;5076870;28;20024;-76
2021/03/07 00:37:05;;;;;;;13.57;3.38;;;3.30;99.90;;;;;;5059582;28;20016;-76
2021/03/07 00:39:31;;;;;;;14.35;3.60;;;3.40;99.90;;;;;;5077781;28;20090;-76
2021/03/07 00:42:00;;;;;;;14.60;3.85;;;3.40;99.90;;;;;;5077383;28;20500;-76
2021/03/07 00:44:27;;;;;;;13.55;4.15;;;3.30;99.90;;;;;;5056150;28;20115;-76
2021/03/07 00:46:54;;;;;;;22.30;4.63;;;3.30;99.90;;;;;;5074095;28;20147;-76
2021/03/07 00:49:22;;;;;;;25.88;3.90;;;3.30;99.90;;;;;;5073707;28;20382;-76
2021/03/07 00:51:48;;;;;;;17.08;3.78;;;3.30;99.90;;;;;;5074047;28;20028;-76
2021/03/07 00:54:14;;;;;;;34.08;4.68;;;3.30;99.90;;;;;;5055530;28;20484;-76
2021/03/07 00:56:40;;;;;;;20.67;4.38;;;3.30;99.90;;;;;;5074034;28;20090;-76
2021/03/07 00:59:05;;;;;;;44.67;9.88;;;3.30;99.90;;;;;;5055865;28;20412;-76
2021/03/07 01:01:32;;;;;;;37.42;9.98;;;3.30;99.90;;;;;;5055912;28;20039;-76
2021/03/07 01:03:57;;;;;;;22.77;5.22;;;3.30;99.90;;;;;;5055443;28;20481;-75
2021/03/07 01:06:23;;;;;;;16.13;4.47;;;3.30;99.90;;;;;;5055833;28;20079;-75
2021/03/07 01:08:48;;;;;;;16.38;4.78;;;3.20;99.90;;;;;;5073797;28;20028;-76
2021/03/07 01:11:14;;;;;;;26.05;4.70;;;3.20;99.90;;;;;;5055831;28;20028;-76
2021/03/07 01:13:40;;;;;;;22.98;4.45;;;3.20;99.90;;;;;;5073239;28;20025;-76
2021/03/07 01:16:05;;;;;;;20.50;4.90;;;3.20;99.90;;;;;;5073404;28;20021;-76
2021/03/07 01:18:31;;;;;;;17.90;4.75;;;3.20;99.90;;;;;;5073634;28;20028;-76
2021/03/07 01:20:56;;;;;;;18.63;5.18;;;3.20;99.90;;;;;;5056006;28;20490;-77
2021/03/07 01:23:23;;;;;;;24.70;4.45;;;3.20;99.90;;;;;;5055486;28;20036;-76
2021/03/07 01:25:49;;;;;;;24.50;4.78;;;3.20;99.90;;;;;;5054896;28;20396;-77
2021/03/07 01:28:15;;;;;;;21.98;5.78;;;3.10;99.90;;;;;;5073275;28;20028;-76
2021/03/07 01:30:41;;;;;;;34.03;5.00;;;3.10;99.90;;;;;;5055363;28;20047;-77
2021/03/07 01:33:07;;;;;;;28.55;5.20;;;3.10;99.90;;;;;;5073256;28;20036;-76
2021/03/07 01:35:33;;;;;;;22.48;4.93;;;3.20;99.90;;;;;;5072585;28;20397;-77
2021/03/07 01:37:59;;;;;;;40.70;5.97;;;3.10;99.90;;;;;;5073199;28;20035;-76
2021/03/07 01:40:49;;;;;;;20.58;7.32;;;3.10;99.90;;;;;;5073161;28;20024;-76
2021/03/07 01:43:19;;;;;;;23.05;7.40;;;3.10;99.90;;;;;;5055177;28;20021;-76
2021/03/07 01:45:45;;;;;;;23.98;5.57;;;3.10;99.90;;;;;;5072364;28;20063;-75
2021/03/07 01:48:13;;;;;;;16.42;4.10;;;3.10;99.90;;;;;;5055045;28;20412;-76
2021/03/07 01:50:47;;;;;;;17.92;3.72;;;3.10;99.90;;;;;;5072654;28;20047;-76
2021/03/07 01:53:15;;;;;;;23.88;4.70;;;3.10;99.90;;;;;;5073040;28;20397;-76
2021/03/07 01:55:40;;;;;;;19.58;4.10;;;3.10;99.90;;;;;;5071994;28;20020;-76
2021/03/07 01:58:18;;;;;;;15.05;3.38;;;3.10;99.90;;;;;;5071237;28;20184;-76
2021/03/07 02:00:44;;;;;;;20.85;3.65;;;3.10;99.90;;;;;;5072896;28;20020;-76
2021/03/07 02:03:10;;;;;;;14.95;2.97;;;3.10;99.90;;;;;;5072746;28;20028;-76
2021/03/07 02:05:36;;;;;;;19.58;3.58;;;3.10;99.90;;;;;;5071795;28;20086;-76
2021/03/07 02:08:04;;;;;;;20.15;2.97;;;3.00;99.90;;;;;;5072519;28;20033;-76
2021/03/07 02:10:39;;;;;;;13.30;3.08;;;3.10;99.90;;;;;;5072568;28;20039;-76
2021/03/07 02:13:15;;;;;;;15.88;3.00;;;3.10;99.90;;;;;;5054472;28;20342;-76
2021/03/07 02:15:43;;;;;;;15.32;2.65;;;3.00;99.90;;;;;;5054166;28;20031;-76
2021/03/07 02:18:11;;;;;;;17.65;3.15;;;3.00;99.90;;;;;;5054527;28;20031;-76
2021/03/07 02:20:43;;;;;;;16.25;2.88;;;3.10;99.90;;;;;;5072042;28;20094;-75
2021/03/07 02:23:14;;;;;;;22.05;3.67;;;3.10;99.90;;;;;;5054786;28;20029;-75
2021/03/07 02:25:40;;;;;;;8.48;2.70;;;3.10;99.90;;;;;;5054072;28;20021;-76
2021/03/07 02:28:08;;;;;;;12.30;3.03;;;3.10;99.90;;;;;;5072000;28;20064;-76
2021/03/07 02:30:35;;;;;;;19.00;3.05;;;3.00;99.90;;;;;;5072160;28;20497;-77
2021/03/07 02:33:11;;;;;;;22.30;3.85;;;3.00;99.90;;;;;;5071991;28;20045;-76
2021/03/07 02:35:44;;;;;;;7.55;3.03;;;3.10;99.90;;;;;;5071321;28;20024;-76
2021/03/07 02:38:11;;;;;;;19.33;3.60;;;3.10;99.90;;;;;;5071888;28;20040;-76
2021/03/07 02:40:37;;;;;;;15.23;3.03;;;3.10;99.90;;;;;;5072067;28;20024;-76
2021/03/07 02:43:06;;;;;;;12.15;2.65;;;3.00;99.90;;;;;;5071768;28;20397;-76
2021/03/07 02:45:32;;;;;;;11.98;3.13;;;3.00;99.90;;;;;;5053332;28;20021;-76
2021/03/07 02:47:59;;;;;;;19.38;3.30;;;3.00;99.90;;;;;;5053914;28;20112;-76
2021/03/07 02:50:29;;;;;;;20.85;2.78;;;3.10;99.90;;;;;;5071820;28;20562;-76
2021/03/07 02:53:05;;;;;;;12.90;2.63;;;3.00;99.90;;;;;;5071999;28;20035;-76
2021/03/07 02:55:33;;;;;;;13.20;3.22;;;3.10;99.90;;;;;;5071608;28;20024;-76
2021/03/07 02:58:07;;;;;;;10.75;2.20;;;3.10;99.90;;;;;;5071424;28;20503;-76
2021/03/07 03:00:34;;;;;;;28.80;3.42;;;3.10;99.90;;;;;;5072038;28;20024;-76
2021/03/07 03:03:07;;;;;;;14.55;3.67;;;3.10;99.90;;;;;;5053797;28;20119;-76
2021/03/07 03:05:33;;;;;;;16.35;2.40;;;3.10;99.90;;;;;;5052944;28;20048;-76
2021/03/07 03:08:01;;;;;;;19.52;3.00;;;3.10;99.90;;;;;;5053413;28;20120;-76
2021/03/07 03:10:28;;;;;;;26.25;3.38;;;3.10;99.90;;;;;;5071542;28;20099;-76
2021/03/07 03:12:54;;;;;;;16.90;2.78;;;3.10;99.90;;;;;;5071676;28;20119;-76
2021/03/07 03:15:20;;;;;;;27.15;3.58;;;3.10;99.90;;;;;;5052694;28;20066;-76
2021/03/07 03:17:49;;;;;;;24.73;4.30;;;3.10;99.90;;;;;;5071477;28;20028;-76
2021/03/07 03:20:17;;;;;;;17.15;2.40;;;3.20;99.90;;;;;;5071467;28;20020;-76
2021/03/07 03:22:44;;;;;;;16.05;2.97;;;3.20;99.90;;;;;;5053340;28;20404;-76
2021/03/07 03:25:10;;;;;;;11.27;2.90;;;3.20;99.90;;;;;;5070659;28;20027;-76
2021/03/07 03:27:36;;;;;;;23.88;3.35;;;3.20;99.90;;;;;;5071367;28;20563;-75
2021/03/07 03:30:14;;;;;;;36.83;5.63;;;3.20;99.90;;;;;;5071164;28;20107;-76
2021/03/07 03:32:40;;;;;;;17.90;3.13;;;3.20;99.90;;;;;;5071337;28;20472;-76
2021/03/07 03:35:11;;;;;;;30.83;4.00;;;3.30;99.90;;;;;;5070765;28;20036;-76
2021/03/07 03:37:38;;;;;;;24.13;3.53;;;3.30;99.90;;;;;;5053117;28;20021;-76
2021/03/07 03:40:08;;;;;;;30.95;4.20;;;3.30;99.90;;;;;;5071300;28;20507;-76
2021/03/07 03:42:39;;;;;;;24.45;3.55;;;3.30;99.90;;;;;;5053379;28;20036;-76
2021/03/07 03:45:07;;;;;;;25.33;4.35;;;3.30;99.90;;;;;;5070454;28;20078;-76
2021/03/07 03:47:33;;;;;;;27.58;3.70;;;3.30;99.90;;;;;;5071252;28;20052;-77
2021/03/07 03:50:00;;;;;;;20.58;3.72;;;3.30;99.90;;;;;;5070953;28;20385;-75
2021/03/07 03:52:29;;;;;;;20.65;2.85;;;3.30;99.90;;;;;;5070970;28;20060;-76
2021/03/07 03:55:19;;;;;;;20.17;3.78;;;3.30;99.90;;;;;;5069875;28;20017;-76
2021/03/07 03:57:48;;;;;;;28.75;3.35;;;3.30;99.90;;;;;;5070630;28;20016;-77
2021/03/07 04:00:17;;;;;;;23.10;4.10;;;3.40;99.90;;;;;;5053146;28;20024;-76
2021/03/07 04:02:44;;;;;;;30.35;4.47;;;3.40;99.90;;;;;;5071680;28;20051;-76
2021/03/07 04:05:11;;;;;;;22.90;3.38;;;3.40;99.90;;;;;;5070511;28;20020;-76
2021/03/07 04:07:38;;;;;;;25.10;4.63;;;3.40;99.90;;;;;;5053050;28;20054;-76
2021/03/07 04:10:07;;;;;;;50.03;6.20;;;3.40;99.90;;;;;;5053032;28;20099;-76
2021/03/07 04:12:36;;;;;;;38.05;4.03;;;3.40;99.90;;;;;;5053028;28;20025;-76
2021/03/07 04:15:02;;;;;;;29.05;5.05;;;3.40;99.90;;;;;;5070251;28;20025;-76
2021/03/07 04:17:29;;;;;;;29.83;4.55;;;3.40;99.90;;;;;;5070916;28;20056;-76
2021/03/07 04:19:55;;;;;;;18.05;4.57;;;3.50;99.90;;;;;;5072510;28;20056;-76
2021/03/07 04:22:22;;;;;;;27.55;4.13;;;3.40;99.90;;;;;;5056509;28;20025;-76
2021/03/07 04:24:48;;;;;;;19.88;4.03;;;3.40;99.90;;;;;;5073956;28;20542;-76
2021/03/07 04:27:15;;;;;;;27.77;4.07;;;3.50;99.90;;;;;;5056751;28;20552;-76
2021/03/07 04:29:42;;;;;;;18.98;3.83;;;3.40;99.90;;;;;;5056318;28;20025;-76
2021/03/07 04:32:09;;;;;;;30.02;4.05;;;3.40;99.90;;;;;;5056925;28;20112;-76
2021/03/07 04:34:36;;;;;;;25.60;4.15;;;3.40;99.90;;;;;;5073867;28;20389;-76
2021/03/07 04:37:02;;;;;;;26.17;4.55;;;3.40;99.90;;;;;;5056542;28;20057;-76
2021/03/07 04:39:28;;;;;;;28.00;5.18;;;3.40;99.90;;;;;;5074313;28;20257;-76
2021/03/07 04:41:54;;;;;;;16.67;4.53;;;3.40;99.90;;;;;;5074358;28;20060;-76
2021/03/07 04:44:19;;;;;;;21.73;4.25;;;3.40;99.90;;;;;;5073569;28;20025;-76
2021/03/07 04:46:45;;;;;;;22.88;4.60;;;3.40;99.90;;;;;;5056305;28;20029;-76
2021/03/07 04:49:11;;;;;;;26.25;5.30;;;3.50;99.90;;;;;;5074072;28;20035;-76
2021/03/07 04:51:36;;;;;;;24.27;4.32;;;3.50;99.90;;;;;;5074145;28;20114;-77
2021/03/07 04:54:03;;;;;;;26.88;4.47;;;3.50;99.90;;;;;;5055650;28;20028;-77
2021/03/07 04:56:29;;;;;;;34.80;5.45;;;3.50;99.90;;;;;;5074045;28;20020;-75
2021/03/07 04:58:55;;;;;;;36.63;5.63;;;3.50;99.90;;;;;;5073844;28;20054;-76
2021/03/07 05:01:20;;;;;;;31.00;4.85;;;3.50;99.90;;;;;;5073937;28;20028;-76
2021/03/07 05:03:46;;;;;;;35.92;3.90;;;3.50;99.90;;;;;;5055360;28;20035;-76
2021/03/07 05:06:12;;;;;;;28.70;4.45;;;3.50;99.90;;;;;;5055956;28;20031;-76
2021/03/07 05:08:39;;;;;;;21.58;3.67;;;3.60;99.90;;;;;;5055856;28;20035;-76
2021/03/07 05:11:04;;;;;;;25.75;6.45;;;3.60;99.90;;;;;;5055993;28;20498;-76
2021/03/07 05:13:30;;;;;;;23.77;4.03;;;3.60;99.90;;;;;;5055747;28;20132;-76
2021/03/07 05:15:56;;;;;;;24.75;3.60;;;3.70;99.90;;;;;;5055184;28;20111;-76
2021/03/07 05:18:21;;;;;;;14.13;3.95;;;3.70;99.90;;;;;;5073612;28;20089;-77
2021/03/07 05:20:47;;;;;;;30.33;4.65;;;3.60;99.90;;;;;;5073602;28;20569;-76
2021/03/07 05:23:13;;;;;;;29.48;5.03;;;3.60;99.90;;;;;;5073581;28;20122;-76
2021/03/07 05:25:39;;;;;;;27.38;4.47;;;3.60;99.90;;;;;;5072904;28;20052;-76
2021/03/07 05:28:05;;;;;;;13.43;3.22;;;3.70;99.90;;;;;;5055411;28;20025;-77
2021/03/07 05:30:31;;;;;;;24.20;4.13;;;3.60;99.90;;;;;;5054992;28;20102;-76
2021/03/07 05:32:56;;;;;;;22.60;3.80;;;3.60;99.90;;;;;;5073446;28;20481;-76
2021/03/07 05:35:22;;;;;;;14.10;4.25;;;3.60;99.90;;;;;;5072801;28;20031;-76
2021/03/07 05:37:48;;;;;;;20.98;4.10;;;3.60;99.90;;;;;;5055300;28;20040;-76
2021/03/07 05:40:16;;;;;;;19.13;3.83;;;3.50;99.90;;;;;;5055310;28;20453;-76
2021/03/07 05:42:41;;;;;;;43.35;5.00;;;3.50;99.90;;;;;;5073089;28;20095;-76
2021/03/07 05:45:07;;;;;;;34.40;4.68;;;3.40;99.90;;;;;;5054588;28;20119;-75
2021/03/07 05:47:33;;;;;;;22.83;3.90;;;3.30;99.90;;;;;;5073140;28;20104;-76
2021/03/07 05:49:59;;;;;;;22.35;4.78;;;3.20;99.90;;;;;;5072949;28;20315;-76
2021/03/07 05:52:25;;;;;;;29.83;5.00;;;3.20;99.90;;;;;;5073073;28;20029;-75
2021/03/07 05:54:54;;;;;;;20.80;4.88;;;3.10;99.90;;;;;;5072354;28;20031;-76
2021/03/07 05:57:22;;;;;;;27.95;4.53;;;3.10;99.90;;;;;;5072815;28;20020;-76
2021/03/07 05:59:51;;;;;;;21.67;4.03;;;3.10;99.90;;;;;;5072787;28;20481;-77
2021/03/07 06:02:17;;;;;;;15.25;3.33;;;3.00;99.90;;;;;;5072860;28;20041;-76
2021/03/07 06:04:49;;;;;;;26.05;3.42;;;3.00;99.90;;;;;;5072173;28;20021;-76
2021/03/07 06:07:15;;;;;;;16.35;3.55;;;3.00;99.90;;;;;;5072786;28;20032;-76
2021/03/07 06:09:40;;;;;;;17.23;3.15;;;3.00;99.90;;;;;;5072416;28;20025;-76
2021/03/07 06:12:17;;;;;;;14.18;3.17;;;3.00;99.90;;;;;;5072717;28;20029;-76
2021/03/07 06:14:45;;;;;;;19.85;4.88;;;2.90;99.90;;;;;;5071890;28;20031;-76
2021/03/07 06:17:14;;;;;;;28.35;3.80;;;3.00;99.90;;;;;;5072467;28;20029;-76
2021/03/07 06:20:01;;;;;;;11.88;4.15;;;2.90;99.90;;;;;;5054563;28;20047;-76
2021/03/07 06:22:28;;;;;;;18.85;3.30;;;3.00;99.90;;;;;;5054499;28;20082;-76
2021/03/07 06:24:54;;;;;;;20.70;3.47;;;3.00;99.90;;;;;;5071810;28;20036;-75
2021/03/07 06:27:20;;;;;;;17.60;2.80;;;3.10;99.90;;;;;;5072316;28;20075;-76
2021/03/07 06:30:01;;;;;;;17.58;3.88;;;3.10;99.90;;;;;;5072230;28;20098;-76
2021/03/07 06:32:29;;;;;;;24.60;4.07;;;3.20;99.90;;;;;;5072271;28;20021;-76
2021/03/07 06:34:56;;;;;;;27.60;4.20;;;3.10;99.90;;;;;;5071555;28;20024;-76
2021/03/07 06:37:22;;;;;;;20.83;3.42;;;3.10;99.90;;;;;;5072186;28;20024;-76
2021/03/07 06:39:48;;;;;;;19.42;4.50;;;3.10;99.90;;;;;;5072124;28;20056;-76
2021/03/07 06:42:16;;;;;;;23.88;3.63;;;3.10;99.90;;;;;;5071539;28;20021;-76
2021/03/07 06:45:02;;;;;;;23.52;4.68;;;3.20;99.90;;;;;;5053640;28;20115;-76
2021/03/07 06:47:29;;;;;;;18.77;3.70;;;3.20;99.90;;;;;;5071985;28;20103;-76
2021/03/07 06:50:14;;;;;;;21.85;3.50;;;3.20;99.90;;;;;;5054045;28;20541;-76
2021/03/07 06:52:53;;;;;;;16.33;3.08;;;3.30;99.90;;;;;;5054017;28;20024;-76
2021/03/07 06:55:22;;;;;;;16.52;2.75;;;3.50;99.90;;;;;;5071690;28;20016;-76
2021/03/07 06:57:48;;;;;;;31.23;4.35;;;3.50;99.90;;;;;;5071748;28;20069;-76
2021/03/07 07:00:14;;;;;;;20.20;4.05;;;3.60;99.90;;;;;;5053818;28;20033;-76
2021/03/07 07:02:40;;;;;;;24.20;5.43;;;3.60;99.90;;;;;;5053808;28;20025;-76
2021/03/07 07:05:06;;;;;;;30.83;6.47;;;3.70;99.90;;;;;;5071201;28;20495;-76
2021/03/07 07:07:32;;;;;;;25.80;4.10;;;3.70;99.90;;;;;;5071625;28;20032;-77
2021/03/07 07:10:06;;;;;;;31.88;4.05;;;3.70;99.90;;;;;;5071500;28;20483;-76
2021/03/07 07:12:31;;;;;;;20.58;3.78;;;3.80;99.90;;;;;;5071588;28;20093;-76
2021/03/07 07:15:14;;;;;;;24.42;4.60;;;3.80;99.90;;;;;;5071069;28;20092;-76
2021/03/07 07:17:40;;;;;;;27.83;4.57;;;3.80;99.90;;;;;;5053575;28;20035;-76
2021/03/07 07:20:09;;;;;;;33.20;4.40;;;3.80;99.90;;;;;;5053534;28;20029;-76
2021/03/07 07:22:35;;;;;;;37.88;4.90;;;3.80;99.90;;;;;;5071548;28;20024;-76
2021/03/07 07:25:03;;;;;;;31.08;5.55;;;3.70;99.90;;;;;;5052940;28;20033;-76
2021/03/07 07:27:28;;;;;;;19.45;4.22;;;3.70;99.90;;;;;;5071422;28;20021;-76
2021/03/07 07:29:54;;;;;;;20.65;3.42;;;3.80;99.90;;;;;;5071550;28;20029;-76
2021/03/07 07:32:40;;;;;;;21.15;6.28;;;3.90;99.90;;;;;;5071411;28;20103;-76
2021/03/07 07:35:09;;;;;;;32.45;5.05;;;4.00;99.90;;;;;;5070834;28;20017;-76
2021/03/07 07:37:50;;;;;;;32.67;4.95;;;4.10;99.90;;;;;;5053166;28;20473;-76
2021/03/07 07:40:16;;;;;;;33.80;4.93;;;4.20;99.90;;;;;;5053511;28;20404;-76
2021/03/07 07:42:56;;;;;;;36.97;5.03;;;4.20;99.90;;;;;;5053350;28;20031;-76
2021/03/07 07:45:22;;;;;;;29.08;4.85;;;4.30;99.90;;;;;;5071130;28;20052;-76
2021/03/07 07:47:50;;;;;;;27.00;4.78;;;4.40;99.90;;;;;;5071202;28;20123;-76
2021/03/07 07:50:28;;;;;;;28.15;6.10;;;4.30;99.90;;;;;;5071026;28;20100;-76
2021/03/07 07:53:04;;;;;;;30.17;6.70;;;4.40;99.90;;;;;;5071290;28;20052;-76
2021/03/07 07:55:49;;;;;;;33.28;5.43;;;4.50;99.90;;;;;;5074637;28;20546;-76
2021/03/07 07:58:36;;;;;;;30.50;5.95;;;4.60;99.90;;;;;;5057377;28;20351;-76
2021/03/07 08:01:06;;;;;;;32.75;7.45;;;4.60;99.90;;;;;;5047564;28;20022;-76
2021/03/07 08:03:36;;;;;;;23.73;5.93;;;4.50;99.90;;;;;;5017004;28;20032;-77
2021/03/07 08:06:03;;;;;;;35.92;7.00;;;4.50;99.90;;;;;;5034390;28;20375;-76
2021/03/07 08:08:33;;;;;;;27.45;7.15;;;4.50;99.90;;;;;;5034561;28;20037;-76
2021/03/07 08:10:59;;;;;;;36.85;7.43;;;4.50;99.90;;;;;;5017127;28;20025;-76
2021/03/07 08:13:28;;;;;;;30.15;8.48;;;4.50;99.90;;;;;;5034858;28;20394;-77
2021/03/07 08:15:55;;;;;;;35.67;8.55;;;4.50;99.90;;;;;;5016208;28;20121;-77
2021/03/07 08:18:22;;;;;;;41.83;8.68;;;4.50;99.90;;;;;;5034757;28;20363;-76
2021/03/07 08:20:47;;;;;;;33.60;8.65;;;4.50;99.90;;;;;;5034729;28;20436;-76
2021/03/07 08:23:14;;;;;;;40.50;8.25;;;4.50;99.90;;;;;;5034757;28;20025;-76
2021/03/07 08:25:48;;;;;;;39.95;9.35;;;4.60;99.90;;;;;;5033896;28;20029;-76
2021/03/07 08:28:29;;;;;;;38.47;8.98;;;4.70;99.90;;;;;;5034420;28;20057;-76
2021/03/07 08:30:56;;;;;;;56.20;10.63;;;4.70;99.90;;;;;;5016884;28;20025;-76
2021/03/07 08:33:29;;;;;;;38.50;8.93;;;4.80;99.90;;;;;;5034359;28;20029;-76
2021/03/07 08:36:20;;;;;;;39.70;9.43;;;4.80;99.90;;;;;;5033865;28;20022;-76
2021/03/07 08:38:49;;;;;;;52.63;10.88;;;4.80;99.90;;;;;;5034385;28;20465;-76
2021/03/07 08:41:18;;;;;;;58.35;10.32;;;4.70;99.90;;;;;;5034316;28;20029;-76
2021/03/07 08:43:49;;;;;;;58.28;12.07;;;4.80;99.90;;;;;;5015757;28;20037;-76
2021/03/07 08:46:17;;;;;;;43.70;9.82;;;4.90;99.90;;;;;;5016607;28;20030;-76
2021/03/07 08:48:48;;;;;;;52.75;9.82;;;5.00;99.90;;;;;;5016249;28;20025;-76
2021/03/07 08:51:16;;;;;;;49.45;10.35;;;4.90;99.90;;;;;;5016562;28;20021;-77
2021/03/07 08:53:44;;;;;;;54.70;10.45;;;4.90;99.90;;;;;;5016145;28;20021;-76
2021/03/07 08:56:10;;;;;;;33.38;10.98;;;4.90;99.90;;;;;;5033977;28;20022;-76
2021/03/07 08:58:38;;;;;;;38.30;9.85;;;5.00;99.90;;;;;;5034072;28;20032;-76
2021/03/07 09:01:04;;;;;;;40.83;11.38;;;5.00;99.90;;;;;;5034035;28;20052;-77
2021/03/07 09:03:30;;;;;;;48.72;12.48;;;5.00;99.90;;;;;;5034068;28;20037;-77
2021/03/07 09:05:56;;;;;;;32.38;10.70;;;5.00;99.90;;;;;;5014648;28;20514;-77
2021/03/07 09:08:24;;;;;;;39.78;10.55;;;5.00;99.90;;;;;;5033670;28;20401;-77
2021/03/07 09:10:53;;;;;;;40.35;11.10;;;5.20;99.90;;;;;;5015950;28;20466;-76
2021/03/07 09:13:21;;;;;;;51.63;11.13;;;5.20;99.90;;;;;;5033869;28;20025;-77
2021/03/07 09:15:59;;;;;;;38.85;11.05;;;5.30;99.90;;;;;;5015334;28;20363;-77
2021/03/07 09:18:34;;;;;;;39.10;12.07;;;5.40;99.90;;;;;;5033738;28;20033;-78
2021/03/07 09:21:08;;;;;;;32.47;11.23;;;5.50;99.90;;;;;;5033419;28;20494;-77
2021/03/07 09:23:45;;;;;;;50.45;10.88;;;5.90;99.90;;;;;;5033711;28;20505;-77
2021/03/07 09:26:20;;;;;;;42.53;11.40;;;6.00;99.90;;;;;;5033483;28;20432;-78
2021/03/07 09:28:48;;;;;;;40.65;10.13;;;6.00;99.90;;;;;;5015695;28;20041;-77
2021/03/07 09:31:18;;;;;;;40.58;10.35;;;6.00;99.90;;;;;;5033419;28;20025;-77
2021/03/07 09:33:52;;;;;;;37.33;9.85;;;5.90;99.90;;;;;;5015044;28;20022;-76
2021/03/07 09:36:20;;;;;;;30.35;9.65;;;5.80;99.90;;;;;;5033300;28;20029;-77
2021/03/07 09:38:48;;;;;;;36.83;8.05;;;5.80;99.90;;;;;;5033297;28;20033;-77
2021/03/07 09:41:25;;;;;;;47.20;9.30;;;5.70;99.90;;;;;;5033204;28;20030;-77
2021/03/07 09:43:51;;;;;;;40.65;8.18;;;5.80;99.90;;;;;;5032665;28;20029;-77
2021/03/07 09:46:17;;;;;;;30.38;9.70;;;5.70;99.90;;;;;;5033117;28;20037;-77
2021/03/07 09:48:45;;;;;;;36.70;8.18;;;5.60;99.90;;;;;;5015324;28;20527;-77
2021/03/07 09:51:13;;;;;;;30.63;9.13;;;5.60;99.90;;;;;;5033435;28;20017;-77
2021/03/07 09:53:40;;;;;;;28.10;8.60;;;5.60;99.90;;;;;;5014850;28;20071;-77
2021/03/07 09:56:20;;;;;;;33.95;8.13;;;5.70;99.90;;;;;;5015346;28;20029;-77
2021/03/07 09:58:46;;;;;;;37.30;8.25;;;5.70;99.90;;;;;;5015053;28;20032;-77
2021/03/07 10:01:12;;;;;;;44.90;8.52;;;5.80;99.90;;;;;;5015304;28;20140;-77
2021/03/07 10:03:37;;;;;;;36.97;8.48;;;5.70;99.90;;;;;;5032703;28;20036;-77
2021/03/07 10:06:21;;;;;;;25.13;8.20;;;5.70;99.90;;;;;;5032302;28;20474;-77
2021/03/07 10:09:03;;;;;;;40.33;8.27;;;5.60;99.90;;;;;;5032562;28;20048;-77
2021/03/07 10:11:28;;;;;;;32.80;6.95;;;5.60;99.90;;;;;;5014832;28;20040;-77
2021/03/07 10:14:12;;;;;;;34.65;7.35;;;5.60;99.90;;;;;;5032232;28;20022;-77
2021/03/07 10:16:37;;;;;;;41.20;6.20;;;5.60;99.90;;;;;;5032649;28;20049;-77
2021/03/07 10:19:13;;;;;;;24.25;5.22;;;5.60;99.90;;;;;;5032519;28;20038;-77
2021/03/07 10:21:44;;;;;;;20.67;5.13;;;5.60;99.90;;;;;;5014768;28;20079;-77
2021/03/07 10:24:10;;;;;;;21.98;4.65;;;5.70;99.90;;;;;;5014483;28;20108;-77
2021/03/07 10:26:37;;;;;;;26.48;6.05;;;5.70;99.90;;;;;;5014661;28;20017;-77
2021/03/07 10:29:19;;;;;;;27.75;4.88;;;5.80;99.90;;;;;;5014668;28;20142;-77
2021/03/07 10:32:09;;;;;;;40.15;6.78;;;5.80;99.90;;;;;;5014645;28;20047;-77
2021/03/07 10:34:41;;;;;;;24.75;5.60;;;5.90;99.90;;;;;;5013944;28;20052;-77
2021/03/07 10:37:09;;;;;;;28.98;5.18;;;6.00;99.90;;;;;;5032247;28;20032;-77
2021/03/07 10:39:35;;;;;;;33.25;5.40;;;5.90;99.90;;;;;;5014341;28;20029;-76
2021/03/07 10:42:07;;;;;;;42.80;6.18;;;5.80;99.90;;;;;;5032210;28;20025;-76
2021/03/07 10:44:33;;;;;;;32.38;5.50;;;5.80;99.90;;;;;;5013684;28;20029;-76
2021/03/07 10:47:19;;;;;;;30.00;6.07;;;5.80;99.90;;;;;;5031887;28;20041;-76
2021/03/07 10:49:48;;;;;;;29.23;5.70;;;5.70;99.90;;;;;;5014241;28;20033;-77
2021/03/07 10:52:13;;;;;;;34.65;6.18;;;5.70;99.90;;;;;;5031953;28;20061;-76
2021/03/07 10:54:40;;;;;;;30.48;7.07;;;5.70;99.90;;;;;;5031257;28;20057;-77
2021/03/07 10:57:08;;;;;;;39.88;6.53;;;5.70;99.90;;;;;;5031859;28;20069;-77
2021/03/07 10:59:33;;;;;;;55.33;13.45;;;5.70;99.90;;;;;;5031856;28;20037;-76
2021/03/07 11:01:59;;;;;;;39.25;8.20;;;5.70;99.90;;;;;;5031851;28;20029;-76
2021/03/07 11:04:24;;;;;;;39.30;6.22;;;5.80;99.90;;;;;;5013469;28;20026;-77
2021/03/07 11:06:50;;;;;;;32.50;8.18;;;5.80;99.90;;;;;;5031748;28;20375;-77
2021/03/07 11:09:16;;;;;;;38.58;7.10;;;5.80;99.90;;;;;;5031591;28;20029;-77
2021/03/07 11:11:43;;;;;;;44.72;11.00;;;5.90;99.90;;;;;;5031560;28;20252;-76
2021/03/07 11:14:08;;;;;;;30.15;7.35;;;5.90;99.90;;;;;;5031036;28;20056;-78
2021/03/07 11:16:35;;;;;;;46.65;9.70;;;5.80;99.90;;;;;;5013945;28;20041;-77
2021/03/07 11:19:00;;;;;;;51.08;10.95;;;5.60;99.90;;;;;;5031388;28;20437;-77
2021/03/07 11:21:26;;;;;;;44.50;10.65;;;5.40;99.90;;;;;;5031638;28;20132;-76
2021/03/07 11:23:51;;;;;;;53.10;11.70;;;5.30;99.90;;;;;;5013560;28;20026;-76
2021/03/07 11:26:17;;;;;;;42.20;8.65;;;5.20;99.90;;;;;;5031378;28;20485;-76
2021/03/07 11:28:42;;;;;;;78.35;18.90;;;5.20;99.90;;;;;;5013498;28;20402;-76
2021/03/07 11:31:08;;;;;;;92.05;19.70;;;5.20;99.90;;;;;;5031501;28;20401;-76
2021/03/07 11:33:34;;;;;;;70.85;14.73;;;5.20;99.90;;;;;;5013680;28;20079;-77
2021/03/07 11:35:59;;;;;;;68.82;14.30;;;5.20;99.90;;;;;;5013033;28;20092;-77
2021/03/07 11:38:25;;;;;;;47.95;10.25;;;5.20;99.90;;;;;;5031279;28;20018;-76
2021/03/07 11:40:50;;;;;;;75.00;16.90;;;5.20;99.90;;;;;;5013686;28;20021;-76
2021/03/07 11:43:16;;;;;;;48.05;10.80;;;5.20;99.90;;;;;;5031163;28;20021;-76
2021/03/07 11:45:42;;;;;;;49.88;7.65;;;5.10;99.90;;;;;;5030682;28;20043;-76
2021/03/07 11:48:09;;;;;;;54.00;9.45;;;5.10;99.90;;;;;;5013664;28;20041;-76
2021/03/07 11:50:34;;;;;;;47.63;9.77;;;5.10;99.90;;;;;;5031120;28;20478;-76
2021/03/07 11:53:00;;;;;;;60.20;10.18;;;5.00;99.90;;;;;;5031050;28;20029;-76
2021/03/07 11:55:26;;;;;;;47.22;9.65;;;5.00;99.90;;;;;;5013045;28;20026;-76
2021/03/07 11:57:51;;;;;;;51.55;10.52;;;5.00;99.90;;;;;;5013495;28;20164;-76
2021/03/07 12:00:17;;;;;;;47.47;9.70;;;4.90;99.90;;;;;;5031532;28;20034;-76
2021/03/07 12:02:43;;;;;;;42.75;9.60;;;5.00;99.90;;;;;;5031149;28;20033;-76
2021/03/07 12:05:09;;;;;;;57.40;9.63;;;5.00;99.90;;;;;;5030430;28;20038;-75
2021/03/07 12:07:35;;;;;;;37.47;8.20;;;5.00;99.90;;;;;;5013469;28;20117;-75
2021/03/07 12:10:00;;;;;;;51.28;9.00;;;5.00;99.90;;;;;;5030778;28;20104;-76
2021/03/07 12:12:26;;;;;;;47.50;9.00;;;5.00;99.90;;;;;;5031093;28;20017;-75
2021/03/07 12:14:51;;;;;;;56.00;10.00;;;5.00;99.90;;;;;;5012820;28;20430;-76
2021/03/07 12:17:17;;;;;;;31.55;8.95;;;5.00;99.90;;;;;;5013357;28;20121;-75
2021/03/07 12:19:42;;;;;;;51.25;10.43;;;5.00;99.90;;;;;;5013190;28;20035;-76
2021/03/07 12:22:08;;;;;;;77.95;11.98;;;5.00;99.90;;;;;;5013285;28;20089;-76
2021/03/07 12:24:34;;;;;;;61.13;10.65;;;5.00;99.90;;;;;;5030315;28;20104;-76
2021/03/07 12:27:04;;;;;;;55.00;11.00;;;5.00;99.90;;;;;;5031026;28;20025;-75
2021/03/07 12:29:34;;;;;;;60.35;10.82;;;5.10;99.90;;;;;;5012939;28;20026;-75
2021/03/07 12:32:01;;;;;;;48.83;9.73;;;5.20;99.90;;;;;;5031138;28;20421;-75
2021/03/07 12:34:26;;;;;;;50.53;9.60;;;5.10;99.90;;;;;;5012561;28;20029;-76
2021/03/07 12:36:53;;;;;;;48.35;9.65;;;5.20;99.90;;;;;;5030683;28;20537;-75
2021/03/07 12:39:19;;;;;;;50.00;10.45;;;5.20;99.90;;;;;;5030535;28;20057;-75
2021/03/07 12:41:44;;;;;;;54.70;11.35;;;5.30;99.90;;;;;;5033549;28;20029;-75
2021/03/07 12:44:10;;;;;;;63.90;10.88;;;5.30;99.90;;;;;;5016152;28;20025;-76
2021/03/07 12:46:36;;;;;;;46.45;9.43;;;5.30;99.90;;;;;;5016718;28;20025;-76
2021/03/07 12:49:01;;;;;;;51.90;9.82;;;5.30;99.90;;;;;;5034058;28;20033;-77
2021/03/07 12:51:27;;;;;;;47.33;9.85;;;5.20;99.90;;;;;;5016442;28;20030;-75